PGT520F LTBJ-LTFJ
Flight info
| Callsign | PGT520F |
|---|---|
| Flight time | 0h 38m |
| Altitude | 26000 |
| Route | BERGO G80 DUGLA Y371 VUTZO |
| Aircraft | A20N/M-SDE2E3FGHIRWXY/LB1 |
Departure
| Time | 2026-04-30 06:01 |
|---|---|
| Airport | Adnan Menderes International Airport (LTBJ) |
Arrival
| Time | 2026-04-30 06:39 |
|---|---|
| Airport | Istanbul Sabiha Gökçen International Airport (LTFJ) |
| Time | Latitude | Longitude | Altitude | Speed | Heading |
|---|---|---|---|---|---|
| 2026-04-30 05:43 | 38.29047 | 27.15133 | 391 ft | 0 kts | 256° |
| 2026-04-30 05:53 | 38.29051 | 27.15151 | 391 ft | 2 kts | 257° |
| 2026-04-30 05:53 | 38.29054 | 27.15171 | 391 ft | 2 kts | 257° |
| 2026-04-30 05:53 | 38.29058 | 27.15192 | 391 ft | 2 kts | 242° |
| 2026-04-30 05:53 | 38.29070 | 27.15206 | 391 ft | 2 kts | 205° |
| 2026-04-30 05:54 | 38.29085 | 27.15209 | 392 ft | 2 kts | 166° |
| 2026-04-30 05:54 | 38.29100 | 27.15204 | 392 ft | 1 kts | 165° |
| 2026-04-30 05:54 | 38.29102 | 27.15204 | 392 ft | 0 kts | 165° |
| 2026-04-30 05:56 | 38.29091 | 27.15208 | 392 ft | 4 kts | 166° |
| 2026-04-30 05:56 | 38.29039 | 27.15223 | 391 ft | 11 kts | 167° |
| 2026-04-30 05:56 | 38.29013 | 27.15231 | 391 ft | 0 kts | 167° |
| 2026-04-30 05:56 | 38.29007 | 27.15239 | 390 ft | 1 kts | 131° |
| 2026-04-30 05:57 | 38.29007 | 27.15247 | 390 ft | 2 kts | 93° |
| 2026-04-30 05:57 | 38.29011 | 27.15299 | 390 ft | 9 kts | 98° |
| 2026-04-30 05:57 | 38.28957 | 27.15326 | 390 ft | 11 kts | 166° |
| 2026-04-30 05:57 | 38.28868 | 27.15353 | 388 ft | 15 kts | 166° |
| 2026-04-30 05:58 | 38.28753 | 27.15388 | 387 ft | 19 kts | 165° |
| 2026-04-30 05:58 | 38.28617 | 27.15431 | 385 ft | 20 kts | 166° |
| 2026-04-30 05:58 | 38.28476 | 27.15474 | 382 ft | 21 kts | 166° |
| 2026-04-30 05:58 | 38.28321 | 27.15524 | 380 ft | 24 kts | 166° |
| 2026-04-30 05:59 | 38.28175 | 27.15571 | 378 ft | 17 kts | 165° |
| 2026-04-30 05:59 | 38.28102 | 27.15630 | 377 ft | 12 kts | 101° |
| 2026-04-30 05:59 | 38.28117 | 27.15743 | 377 ft | 14 kts | 77° |
| 2026-04-30 05:59 | 38.28153 | 27.15805 | 378 ft | 7 kts | 353° |
| 2026-04-30 06:00 | 38.28212 | 27.15786 | 379 ft | 13 kts | 346° |
| 2026-04-30 06:00 | 38.28484 | 27.15705 | 384 ft | 75 kts | 346° |
| 2026-04-30 06:00 | 38.29197 | 27.15491 | 393 ft | 132 kts | 347° |
| 2026-04-30 06:00 | 38.30180 | 27.15207 | 720 ft | 145 kts | 348° |
| 2026-04-30 06:01 | 38.31166 | 27.14957 | 1302 ft | 145 kts | 349° |
| 2026-04-30 06:01 | 38.32146 | 27.14711 | 1886 ft | 143 kts | 349° |
| 2026-04-30 06:01 | 38.32797 | 27.14531 | 2211 ft | 148 kts | 348° |
| 2026-04-30 06:01 | 38.34224 | 27.14123 | 2720 ft | 170 kts | 348° |
| 2026-04-30 06:02 | 38.35449 | 27.13769 | 3195 ft | 190 kts | 348° |
| 2026-04-30 06:02 | 38.36360 | 27.13508 | 3497 ft | 207 kts | 347° |
| 2026-04-30 06:02 | 38.37843 | 27.13084 | 4078 ft | 230 kts | 347° |
| 2026-04-30 06:02 | 38.39455 | 27.12625 | 4734 ft | 251 kts | 347° |
| 2026-04-30 06:03 | 38.41222 | 27.12104 | 5532 ft | 265 kts | 346° |
| 2026-04-30 06:03 | 38.43025 | 27.11556 | 6580 ft | 270 kts | 346° |
| 2026-04-30 06:03 | 38.44876 | 27.10992 | 7570 ft | 274 kts | 346° |
| 2026-04-30 06:03 | 38.46751 | 27.10422 | 8601 ft | 279 kts | 346° |
| 2026-04-30 06:04 | 38.48653 | 27.09845 | 9612 ft | 283 kts | 346° |
| 2026-04-30 06:04 | 38.50594 | 27.09258 | 10473 ft | 294 kts | 345° |
| 2026-04-30 06:04 | 38.52663 | 27.08629 | 10915 ft | 317 kts | 345° |
| 2026-04-30 06:05 | 38.57171 | 27.07261 | 12297 ft | 340 kts | 345° |
| 2026-04-30 06:05 | 38.59474 | 27.06636 | 13243 ft | 345 kts | 349° |
| 2026-04-30 06:05 | 38.61888 | 27.06420 | 14117 ft | 351 kts | 358° |
| 2026-04-30 06:05 | 38.64349 | 27.06689 | 14904 ft | 358 kts | 6° |
| 2026-04-30 06:06 | 38.66823 | 27.07166 | 15676 ft | 362 kts | 5° |
| 2026-04-30 06:06 | 38.69334 | 27.07635 | 16445 ft | 367 kts | 5° |
| 2026-04-30 06:06 | 38.71880 | 27.08105 | 17205 ft | 372 kts | 5° |
| 2026-04-30 06:06 | 38.74457 | 27.08579 | 17958 ft | 376 kts | 5° |
| 2026-04-30 06:07 | 38.77064 | 27.09059 | 18667 ft | 381 kts | 5° |
| 2026-04-30 06:07 | 38.79671 | 27.09539 | 19325 ft | 385 kts | 5° |
| 2026-04-30 06:07 | 38.82336 | 27.10031 | 19976 ft | 389 kts | 4° |
| 2026-04-30 06:07 | 38.85033 | 27.10530 | 20625 ft | 393 kts | 4° |
| 2026-04-30 06:08 | 38.87753 | 27.11033 | 21267 ft | 397 kts | 4° |
| 2026-04-30 06:08 | 38.90505 | 27.11543 | 21906 ft | 401 kts | 4° |
| 2026-04-30 06:08 | 38.93289 | 27.12060 | 22488 ft | 407 kts | 4° |
| 2026-04-30 06:08 | 38.96104 | 27.12583 | 23124 ft | 410 kts | 4° |
| 2026-04-30 06:09 | 38.98940 | 27.13110 | 23717 ft | 414 kts | 4° |
| 2026-04-30 06:09 | 39.01810 | 27.13641 | 24262 ft | 417 kts | 4° |
| 2026-04-30 06:09 | 39.04692 | 27.14167 | 24821 ft | 419 kts | 4° |
| 2026-04-30 06:09 | 39.07594 | 27.14695 | 25345 ft | 422 kts | 4° |
| 2026-04-30 06:10 | 39.10515 | 27.15226 | 25842 ft | 425 kts | 4° |
| 2026-04-30 06:10 | 39.13413 | 27.15754 | 26023 ft | 427 kts | 4° |
| 2026-04-30 06:10 | 39.16357 | 27.16293 | 26066 ft | 427 kts | 4° |
| 2026-04-30 06:10 | 39.19298 | 27.16832 | 26064 ft | 427 kts | 4° |
| 2026-04-30 06:11 | 39.22244 | 27.17371 | 26062 ft | 426 kts | 4° |
| 2026-04-30 06:11 | 39.25181 | 27.17909 | 26067 ft | 426 kts | 4° |
| 2026-04-30 06:11 | 39.28120 | 27.18447 | 26066 ft | 427 kts | 4° |
| 2026-04-30 06:11 | 39.31061 | 27.18987 | 26073 ft | 427 kts | 4° |
| 2026-04-30 06:12 | 39.34004 | 27.19527 | 26069 ft | 427 kts | 4° |
| 2026-04-30 06:12 | 39.36944 | 27.20067 | 26069 ft | 427 kts | 4° |
| 2026-04-30 06:12 | 39.39887 | 27.20609 | 26072 ft | 427 kts | 4° |
| 2026-04-30 06:12 | 39.42830 | 27.21150 | 26072 ft | 426 kts | 4° |
| 2026-04-30 06:13 | 39.45766 | 27.21691 | 26076 ft | 426 kts | 4° |
| 2026-04-30 06:13 | 39.48669 | 27.22237 | 26072 ft | 427 kts | 5° |
| 2026-04-30 06:13 | 39.51578 | 27.23123 | 26076 ft | 432 kts | 13° |
| 2026-04-30 06:13 | 39.54443 | 27.24306 | 26087 ft | 432 kts | 13° |
| 2026-04-30 06:14 | 39.57311 | 27.25477 | 26082 ft | 432 kts | 13° |
| 2026-04-30 06:14 | 39.60179 | 27.26642 | 26082 ft | 432 kts | 13° |
| 2026-04-30 06:14 | 39.63048 | 27.27806 | 26081 ft | 431 kts | 13° |
| 2026-04-30 06:14 | 39.65914 | 27.28973 | 26083 ft | 432 kts | 13° |
| 2026-04-30 06:15 | 39.68787 | 27.30144 | 26083 ft | 433 kts | 13° |
| 2026-04-30 06:15 | 39.71659 | 27.31317 | 26084 ft | 432 kts | 13° |
| 2026-04-30 06:15 | 39.74527 | 27.32490 | 26086 ft | 432 kts | 13° |
| 2026-04-30 06:15 | 39.77396 | 27.33664 | 26091 ft | 432 kts | 13° |
| 2026-04-30 06:16 | 39.80271 | 27.34842 | 26097 ft | 432 kts | 13° |
| 2026-04-30 06:16 | 39.83105 | 27.36005 | 26098 ft | 432 kts | 13° |
| 2026-04-30 06:16 | 39.85971 | 27.37182 | 26117 ft | 432 kts | 13° |
| 2026-04-30 06:16 | 39.88843 | 27.38361 | 26096 ft | 432 kts | 13° |
| 2026-04-30 06:17 | 39.91713 | 27.39541 | 26099 ft | 432 kts | 13° |
| 2026-04-30 06:17 | 39.94587 | 27.40723 | 26101 ft | 432 kts | 13° |
| 2026-04-30 06:17 | 39.97459 | 27.41906 | 26103 ft | 432 kts | 13° |
| 2026-04-30 06:17 | 40.00331 | 27.43090 | 26105 ft | 432 kts | 13° |
| 2026-04-30 06:18 | 40.03170 | 27.44262 | 26107 ft | 433 kts | 13° |
| 2026-04-30 06:18 | 40.06043 | 27.45449 | 26110 ft | 433 kts | 13° |
| 2026-04-30 06:18 | 40.08920 | 27.46639 | 26106 ft | 432 kts | 13° |
| 2026-04-30 06:18 | 40.11787 | 27.47824 | 26099 ft | 432 kts | 13° |
| 2026-04-30 06:19 | 40.14655 | 27.49011 | 26108 ft | 433 kts | 13° |
| 2026-04-30 06:19 | 40.17462 | 27.50499 | 26107 ft | 440 kts | 25° |
| 2026-04-30 06:19 | 40.19979 | 27.52813 | 25957 ft | 447 kts | 38° |
| 2026-04-30 06:19 | 40.22044 | 27.55866 | 25729 ft | 451 kts | 53° |
| 2026-04-30 06:20 | 40.23594 | 27.59449 | 25485 ft | 454 kts | 62° |
| 2026-04-30 06:20 | 40.24922 | 27.63209 | 25026 ft | 456 kts | 63° |
| 2026-04-30 06:20 | 40.26238 | 27.67001 | 24403 ft | 457 kts | 63° |
| 2026-04-30 06:20 | 40.27572 | 27.70710 | 23792 ft | 455 kts | 62° |
| 2026-04-30 06:21 | 40.28957 | 27.74424 | 23138 ft | 451 kts | 62° |
| 2026-04-30 06:21 | 40.30354 | 27.78092 | 22541 ft | 445 kts | 61° |
| 2026-04-30 06:21 | 40.31737 | 27.81686 | 21930 ft | 440 kts | 61° |
| 2026-04-30 06:21 | 40.33108 | 27.85242 | 21348 ft | 435 kts | 61° |
| 2026-04-30 06:22 | 40.34465 | 27.88762 | 20737 ft | 431 kts | 61° |
| 2026-04-30 06:22 | 40.35810 | 27.92255 | 20148 ft | 426 kts | 61° |
| 2026-04-30 06:22 | 40.37138 | 27.95709 | 19566 ft | 423 kts | 61° |
| 2026-04-30 06:22 | 40.38454 | 27.99136 | 18988 ft | 419 kts | 61° |
| 2026-04-30 06:23 | 40.39761 | 28.02544 | 18384 ft | 416 kts | 62° |
| 2026-04-30 06:23 | 40.41038 | 28.05879 | 17770 ft | 411 kts | 62° |
| 2026-04-30 06:23 | 40.42313 | 28.09213 | 17204 ft | 406 kts | 62° |
| 2026-04-30 06:23 | 40.43571 | 28.12505 | 16636 ft | 401 kts | 62° |
| 2026-04-30 06:24 | 40.44815 | 28.15765 | 16082 ft | 396 kts | 62° |
| 2026-04-30 06:24 | 40.46043 | 28.18984 | 15518 ft | 392 kts | 62° |
| 2026-04-30 06:24 | 40.47259 | 28.22179 | 14960 ft | 388 kts | 62° |
| 2026-04-30 06:24 | 40.48461 | 28.25338 | 14424 ft | 385 kts | 62° |
| 2026-04-30 06:25 | 40.49651 | 28.28469 | 13872 ft | 381 kts | 62° |
| 2026-04-30 06:25 | 40.50829 | 28.31573 | 13309 ft | 377 kts | 62° |
| 2026-04-30 06:25 | 40.51989 | 28.34634 | 12784 ft | 372 kts | 62° |
| 2026-04-30 06:25 | 40.53137 | 28.37665 | 12262 ft | 367 kts | 62° |
| 2026-04-30 06:26 | 40.54266 | 28.40651 | 11741 ft | 363 kts | 62° |
| 2026-04-30 06:26 | 40.55370 | 28.43571 | 11174 ft | 360 kts | 62° |
| 2026-04-30 06:26 | 40.56490 | 28.46537 | 10588 ft | 360 kts | 62° |
| 2026-04-30 06:26 | 40.57587 | 28.49447 | 10348 ft | 348 kts | 62° |
| 2026-04-30 06:27 | 40.58639 | 28.52242 | 10202 ft | 332 kts | 62° |
| 2026-04-30 06:27 | 40.59637 | 28.54897 | 10033 ft | 315 kts | 62° |
| 2026-04-30 06:27 | 40.60589 | 28.57431 | 9771 ft | 305 kts | 62° |
| 2026-04-30 06:27 | 40.61516 | 28.59896 | 9316 ft | 296 kts | 62° |
| 2026-04-30 06:28 | 40.62415 | 28.62289 | 8888 ft | 288 kts | 62° |
| 2026-04-30 06:28 | 40.63294 | 28.64631 | 8560 ft | 283 kts | 62° |
| 2026-04-30 06:28 | 40.64162 | 28.66943 | 8277 ft | 280 kts | 63° |
| 2026-04-30 06:28 | 40.65025 | 28.69242 | 8036 ft | 281 kts | 63° |
| 2026-04-30 06:29 | 40.65888 | 28.71545 | 7680 ft | 280 kts | 63° |
| 2026-04-30 06:29 | 40.66748 | 28.73843 | 7325 ft | 278 kts | 63° |
| 2026-04-30 06:29 | 40.67600 | 28.76124 | 6977 ft | 277 kts | 63° |
| 2026-04-30 06:29 | 40.68446 | 28.78389 | 6623 ft | 276 kts | 63° |
| 2026-04-30 06:30 | 40.69293 | 28.80659 | 6260 ft | 274 kts | 63° |
| 2026-04-30 06:30 | 40.70102 | 28.82832 | 6052 ft | 259 kts | 63° |
| 2026-04-30 06:30 | 40.70873 | 28.84902 | 5952 ft | 247 kts | 63° |
| 2026-04-30 06:30 | 40.71615 | 28.86894 | 5801 ft | 238 kts | 63° |
| 2026-04-30 06:31 | 40.72344 | 28.88853 | 5535 ft | 237 kts | 63° |
| 2026-04-30 06:31 | 40.73063 | 28.90787 | 5315 ft | 232 kts | 63° |
| 2026-04-30 06:31 | 40.73772 | 28.92695 | 5075 ft | 230 kts | 64° |
| 2026-04-30 06:31 | 40.74462 | 28.94553 | 4827 ft | 228 kts | 64° |
| 2026-04-30 06:32 | 40.75157 | 28.96425 | 4560 ft | 226 kts | 64° |
| 2026-04-30 06:32 | 40.75847 | 28.98287 | 4295 ft | 225 kts | 64° |
| 2026-04-30 06:32 | 40.76532 | 29.00132 | 4049 ft | 222 kts | 64° |
| 2026-04-30 06:32 | 40.77229 | 29.01926 | 3988 ft | 220 kts | 58° |
| 2026-04-30 06:33 | 40.78047 | 29.03622 | 3952 ft | 216 kts | 57° |
| 2026-04-30 06:33 | 40.78844 | 29.05257 | 3895 ft | 207 kts | 57° |
| 2026-04-30 06:33 | 40.79615 | 29.06842 | 3723 ft | 203 kts | 58° |
| 2026-04-30 06:33 | 40.80371 | 29.08402 | 3516 ft | 199 kts | 58° |
| 2026-04-30 06:34 | 40.81014 | 29.09950 | 3394 ft | 191 kts | 64° |
| 2026-04-30 06:34 | 40.81577 | 29.11496 | 3241 ft | 184 kts | 64° |
| 2026-04-30 06:34 | 40.82130 | 29.12993 | 3110 ft | 179 kts | 65° |
| 2026-04-30 06:34 | 40.82683 | 29.14495 | 2943 ft | 179 kts | 64° |
| 2026-04-30 06:35 | 40.83218 | 29.15947 | 2701 ft | 173 kts | 65° |
| 2026-04-30 06:35 | 40.83735 | 29.17351 | 2465 ft | 168 kts | 65° |
| 2026-04-30 06:35 | 40.84240 | 29.18721 | 2236 ft | 163 kts | 64° |
| 2026-04-30 06:35 | 40.84728 | 29.20047 | 2017 ft | 158 kts | 64° |
| 2026-04-30 06:36 | 40.85201 | 29.21332 | 1810 ft | 150 kts | 64° |
| 2026-04-30 06:36 | 40.85635 | 29.22511 | 1611 ft | 135 kts | 64° |
| 2026-04-30 06:36 | 40.86022 | 29.23561 | 1425 ft | 121 kts | 63° |
| 2026-04-30 06:36 | 40.86382 | 29.24540 | 1273 ft | 121 kts | 64° |
| 2026-04-30 06:37 | 40.86751 | 29.25545 | 1101 ft | 123 kts | 63° |
| 2026-04-30 06:37 | 40.87122 | 29.26552 | 920 ft | 123 kts | 63° |
| 2026-04-30 06:37 | 40.87488 | 29.27554 | 737 ft | 120 kts | 63° |
| 2026-04-30 06:37 | 40.87856 | 29.28536 | 602 ft | 119 kts | 60° |
| 2026-04-30 06:38 | 40.88213 | 29.29510 | 423 ft | 115 kts | 60° |
| 2026-04-30 06:38 | 40.88567 | 29.30476 | 288 ft | 116 kts | 61° |
| 2026-04-30 06:38 | 40.88849 | 29.31242 | 296 ft | 69 kts | 64° |
| 2026-04-30 06:38 | 40.89035 | 29.31747 | 301 ft | 56 kts | 66° |
| 2026-04-30 06:39 | 40.89195 | 29.32176 | 301 ft | 47 kts | 62° |
| 2026-04-30 06:39 | 40.89361 | 29.32425 | 306 ft | 29 kts | 36° |
| 2026-04-30 06:39 | 40.89489 | 29.32498 | 307 ft | 15 kts | 328° |
| 2026-04-30 06:39 | 40.89511 | 29.32376 | 306 ft | 15 kts | 313° |
| 2026-04-30 06:40 | 40.89616 | 29.32335 | 306 ft | 17 kts | 338° |
| 2026-04-30 06:40 | 40.89727 | 29.32262 | 306 ft | 19 kts | 334° |
| 2026-04-30 06:40 | 40.89845 | 29.32186 | 311 ft | 18 kts | 334° |
| 2026-04-30 06:40 | 40.89955 | 29.32113 | 316 ft | 17 kts | 334° |
| 2026-04-30 06:41 | 40.90059 | 29.32048 | 320 ft | 16 kts | 345° |
| 2026-04-30 06:41 | 40.90124 | 29.32149 | 319 ft | 17 kts | 64° |
| 2026-04-30 06:41 | 40.90184 | 29.32307 | 320 ft | 22 kts | 63° |
| 2026-04-30 06:41 | 40.90253 | 29.32498 | 319 ft | 24 kts | 64° |
| 2026-04-30 06:42 | 40.90346 | 29.32575 | 319 ft | 18 kts | 338° |
| 2026-04-30 06:42 | 40.90473 | 29.32491 | 315 ft | 22 kts | 333° |
| 2026-04-30 06:42 | 40.90587 | 29.32417 | 320 ft | 17 kts | 326° |
| 2026-04-30 06:42 | 40.90632 | 29.32332 | 319 ft | 11 kts | 332° |
| 2026-04-30 06:43 | 40.90708 | 29.32282 | 320 ft | 14 kts | 334° |
| 2026-04-30 06:43 | 40.90720 | 29.32176 | 320 ft | 15 kts | 242° |
| 2026-04-30 06:43 | 40.90672 | 29.32047 | 320 ft | 11 kts | 244° |
| 2026-04-30 06:43 | 40.90657 | 29.32007 | 320 ft | 1 kts | 243° |
| 2026-04-30 06:44 | 40.90644 | 29.31997 | 320 ft | 4 kts | 198° |
| 2026-04-30 06:44 | 40.90617 | 29.32013 | 320 ft | 5 kts | 153° |
| 2026-04-30 06:44 | 40.90586 | 29.32033 | 320 ft | 5 kts | 155° |
| 2026-04-30 06:44 | 40.90578 | 29.32038 | 320 ft | 0 kts | 154° |